Faust — SLKQ — position and weather

sailwx.info

Track history (hours):
 
Tides and Currents Weather Stations Pressure Air Temp Water Temp Dewpoint Dewpoint Depression Visibility Wind Speed Wind Dir Waves Ship Positions

Faust

Last reported at 2016-Jul-20 12:33 UTC. Time now 2016-Jul-24 01:03 UTC.
Position S 27°08' E 153°21'.

Length 227.8 m; beam 32.3 m; draft 9.5 m.

Type: Cargo ship. MMSI: 266260000.

Date/timePositionNaut miles runAvg speedWind from/ knotsBaromVisibWave heightAir tempDewpointWater temp
2016-Jul-20 12:33S 27°08' E 153°21'1413.7
2016-Jul-20 11:32S 27°20' E 153°12'4 3.6
2016-Jul-20 10:32S 27°23' E 153°10'0 0.0
2016-Jul-20 09:28S 27°23' E 153°10'21 1.9
2016-Jul-19 22:24S 27°02' E 153°15'1415.5
2016-Jul-19 21:30S 26°49' E 153°10'16 8.1
2016-Jul-19 19:27S 26°52' E 153°28'1612.8
2016-Jul-19 18:11S 27°06' E 153°36'1013.7
2016-Jul-19 17:27S 27°16' E 153°38'1313.9
2016-Jul-19 16:33S 27°28' E 153°40'1713.5
2016-Jul-19 15:19S 27°45' E 153°42'1313.6
2016-Jul-19 14:20S 27°58' E 153°44'1013.3
2016-Jul-19 13:33S 28°09' E 153°45'21715.2
2016-Jul-18 23:16S 31°43' E 153°03'1217.0
2016-Jul-18 22:33S 31°55' E 152°59'1817.3
2016-Jul-18 21:32S 32°12' E 152°53'1616.8
2016-Jul-18 20:33S 32°27' E 152°47'1716.7
2016-Jul-18 19:34S 32°42' E 152°37'1818.1
2016-Jul-18 18:33S 32°57' E 152°25'1817.5
2016-Jul-18 17:33S 33°11' E 152°13'1817.6
2016-Jul-18 16:33S 33°25' E 151°60'1817.8
2016-Jul-18 15:33S 33°39' E 151°47'130 3.7
2016-Jul-17 04:34S 35°38' E 150°45'1717.1
2016-Jul-17 03:34S 35°55' E 150°39'1616.0
2016-Jul-17 02:34S 36°10' E 150°34'1615.5
2016-Jul-17 01:34S 36°25' E 150°29'1615.7
2016-Jul-17 00:34S 36°40' E 150°23'1615.5
2016-Jul-16 23:34S 36°55' E 150°18'1615.8
2016-Jul-16 22:34S 37°10' E 150°12'1616.2
2016-Jul-16 21:34S 37°26' E 150°06'1616.0
2016-Jul-16 20:34S 37°40' E 149°57'1616.2
2016-Jul-16 19:34S 37°53' E 149°43'1616.4
2016-Jul-16 18:34S 38°03' E 149°27'1615.8
2016-Jul-16 17:34S 38°12' E 149°11'1616.4
2016-Jul-16 16:34S 38°22' E 148°55'1616.4
2016-Jul-16 15:33S 38°33' E 148°38'1716.4
2016-Jul-16 14:33S 38°43' E 148°22'1616.6
2016-Jul-16 13:33S 38°49' E 148°03'1716.8
2016-Jul-16 12:34S 38°56' E 147°43'1716.7
2016-Jul-16 11:34S 39°02' E 147°23'1616.4
2016-Jul-16 10:34S 39°07' E 147°03'1616.2
2016-Jul-16 09:34S 39°13' E 146°43'1615.8
2016-Jul-16 08:34S 39°16' E 146°23'1615.8
2016-Jul-16 07:34S 39°11' E 146°04'1716.7
2016-Jul-16 06:34S 39°01' E 145°46'3316.7
2016-Jul-16 04:34S 38°44' E 145°09'1616.2
2016-Jul-16 03:34S 38°35' E 144°52'1715.6
2016-Jul-16 02:30S 38°22' E 144°39'  
2016-Jul-11 01:05S 31°58' E 115°40'611.7
2016-Jul-11 00:33S 32°03' E 115°42'2 2.2
2016-Jul-10 23:30S 32°02' E 115°45'0 0.0
2016-Jul-10 22:31S 32°02' E 115°45'0 0.0
2016-Jul-10 21:31S 32°02' E 115°45'0 0.0
2016-Jul-10 20:31S 32°02' E 115°45'0 0.0
2016-Jul-10 19:31S 32°02' E 115°45'0 0.0
2016-Jul-10 18:31S 32°02' E 115°45'0 0.0
2016-Jul-10 17:31S 32°02' E 115°45'0 0.0
2016-Jul-10 16:31S 32°02' E 115°45'0 0.0
2016-Jul-10 15:31S 32°02' E 115°45'0 0.0
2016-Jul-10 14:31S 32°02' E 115°45'0 0.0
2016-Jul-10 13:31S 32°02' E 115°45'  
Track history (hours):
 
Tides and Currents Weather Stations Pressure Air Temp Water Temp Dewpoint Dewpoint Depression Visibility Wind Speed Wind Dir Waves Ship Positions

Faust

Last reported at 2016-Jul-20 12:33 UTC. Time now 2016-Jul-24 01:03 UTC.
Position S 27°08' E 153°21'.

Length 227.8 m; beam 32.3 m; draft 9.5 m.

Type: Cargo ship. MMSI: 266260000.

Date/timePositionNaut miles runAvg speedWind from/ knotsBaromVisibWave heightAir tempDewpointWater temp
2016-Jul-20 12:33S 27°08' E 153°21'1413.7
2016-Jul-20 11:32S 27°20' E 153°12'4 3.6
2016-Jul-20 10:32S 27°23' E 153°10'0 0.0
2016-Jul-20 09:28S 27°23' E 153°10'21 1.9
2016-Jul-19 22:24S 27°02' E 153°15'1415.5
2016-Jul-19 21:30S 26°49' E 153°10'16 8.1
2016-Jul-19 19:27S 26°52' E 153°28'1612.8
2016-Jul-19 18:11S 27°06' E 153°36'1013.7
2016-Jul-19 17:27S 27°16' E 153°38'1313.9
2016-Jul-19 16:33S 27°28' E 153°40'1713.5
2016-Jul-19 15:19S 27°45' E 153°42'1313.6
2016-Jul-19 14:20S 27°58' E 153°44'1013.3
2016-Jul-19 13:33S 28°09' E 153°45'21715.2
2016-Jul-18 23:16S 31°43' E 153°03'1217.0
2016-Jul-18 22:33S 31°55' E 152°59'1817.3
2016-Jul-18 21:32S 32°12' E 152°53'1616.8
2016-Jul-18 20:33S 32°27' E 152°47'1716.7
2016-Jul-18 19:34S 32°42' E 152°37'1818.1
2016-Jul-18 18:33S 32°57' E 152°25'1817.5
2016-Jul-18 17:33S 33°11' E 152°13'1817.6
2016-Jul-18 16:33S 33°25' E 151°60'1817.8
2016-Jul-18 15:33S 33°39' E 151°47'130 3.7
2016-Jul-17 04:34S 35°38' E 150°45'1717.1
2016-Jul-17 03:34S 35°55' E 150°39'1616.0
2016-Jul-17 02:34S 36°10' E 150°34'1615.5
2016-Jul-17 01:34S 36°25' E 150°29'1615.7
2016-Jul-17 00:34S 36°40' E 150°23'1615.5
2016-Jul-16 23:34S 36°55' E 150°18'1615.8
2016-Jul-16 22:34S 37°10' E 150°12'1616.2
2016-Jul-16 21:34S 37°26' E 150°06'1616.0
2016-Jul-16 20:34S 37°40' E 149°57'1616.2
2016-Jul-16 19:34S 37°53' E 149°43'1616.4
2016-Jul-16 18:34S 38°03' E 149°27'1615.8
2016-Jul-16 17:34S 38°12' E 149°11'1616.4
2016-Jul-16 16:34S 38°22' E 148°55'1616.4
2016-Jul-16 15:33S 38°33' E 148°38'1716.4
2016-Jul-16 14:33S 38°43' E 148°22'1616.6
2016-Jul-16 13:33S 38°49' E 148°03'1716.8
2016-Jul-16 12:34S 38°56' E 147°43'1716.7
2016-Jul-16 11:34S 39°02' E 147°23'1616.4
2016-Jul-16 10:34S 39°07' E 147°03'1616.2
2016-Jul-16 09:34S 39°13' E 146°43'1615.8
2016-Jul-16 08:34S 39°16' E 146°23'1615.8
2016-Jul-16 07:34S 39°11' E 146°04'1716.7
2016-Jul-16 06:34S 39°01' E 145°46'3316.7
2016-Jul-16 04:34S 38°44' E 145°09'1616.2
2016-Jul-16 03:34S 38°35' E 144°52'1715.6
2016-Jul-16 02:30S 38°22' E 144°39'  
2016-Jul-11 01:05S 31°58' E 115°40'611.7
2016-Jul-11 00:33S 32°03' E 115°42'2 2.2
2016-Jul-10 23:30S 32°02' E 115°45'0 0.0
2016-Jul-10 22:31S 32°02' E 115°45'0 0.0
2016-Jul-10 21:31S 32°02' E 115°45'0 0.0
2016-Jul-10 20:31S 32°02' E 115°45'0 0.0
2016-Jul-10 19:31S 32°02' E 115°45'0 0.0
2016-Jul-10 18:31S 32°02' E 115°45'0 0.0
2016-Jul-10 17:31S 32°02' E 115°45'0 0.0
2016-Jul-10 16:31S 32°02' E 115°45'0 0.0
2016-Jul-10 15:31S 32°02' E 115°45'0 0.0
2016-Jul-10 14:31S 32°02' E 115°45'0 0.0
2016-Jul-10 13:31S 32°02' E 115°45'  

Dump ship's entire track history